Kahului, HI

3:23 PM HST on September 30, 2016 (GMT -1000)
Wailuku Kehalani | | Change Station

Elev 259 ft 20.87 °N, 156.50 °W | Updated 8 seconds ago

Scattered Clouds
Scattered Clouds
80.1 °F
Feels Like 84 °F
N
6.7
Wind Variable Wind from NW
Gusts 9.8 mph

Today
High -- | Low -- °F
--% Chance of Precip.
Yesterday
High -- | Low -- °F
Precip. -- in
Pressure 30.00 in
Visibility 10.0 miles
Clouds Few 3000 ft
Scattered Clouds 5000 ft
Heat Index 84 °F
Dew Point 72 °F
Humidity 76%
Rainfall 0.00 in
Snow Depth Not available.
6:16 AM 6:14 PM
New Moon, 0% visible
METAR PHOG 010054Z 04020KT 10SM FEW030 SCT050 31/19 A2998 RMK AO2 PK WND 04029/0031 SLP157 T03110194
Pressure 30.00 in
Visibility 10.0 miles
Clouds Few 3000 ft
Scattered Clouds 5000 ft
Heat Index 84 °F
Dew Point 72 °F
Humidity 76%
Rainfall 0.00 in
Snow Depth Not available.
6:16 AM 6:14 PM
New Moon, 0% visible
METAR PHOG 010054Z 04020KT 10SM FEW030 SCT050 31/19 A2998 RMK AO2 PK WND 04029/0031 SLP157 T03110194

10-Day Weather Forecast

Almanac

Astronomy

Sep. 30, 2016 Rise Set
Actual Time
Civil Twilight
Nautical Twilight
Astronomical Twilight
Moon
Length of Visible Light
Length of Day
Tomorrow will be .
, % of the Moon is Illuminated

Today's Extremes

State Highs State Lows

Community

WunderPhotos

Upload Photos

1,942,829 photos uploaded!

WunderBlog® & News

Nearby

Air Quality

  Air Quality AQ Index Pollutant
Not available.

Snow Depth

Station Depth Elevation

Earthquake Activity

City Distance Mag. Time & Date
Minimum magnitude displayed is 2.5.

Coastal Water Temperatures

Place Temperature

Stations

Nearby Weather Stations

Station Location Temp. Windchill Dew Point Humidity Wind Precip. Elev Updated Type
                   

Watches & Warnings

There are currently no watches in effect.